Лос Анџелес, CA

09:31 PM PST на 22 Ноември, 2017 (GMT -0800)
Victoria Ave Elementary | | Change Station

Elev 125 ft 33.95 °N, 118.21 °W | Updated 13 minutes ago

Ведро
Ведро
69.3 °F
Feels Like 69.3 °F
С
0.0
Ветер Променлив Ветер from ЗСЗ
Gusts 1.0 mph

Денес
High -- | Low -- °F
--% Chance of Precip.
Вчера
High -- | Low -- °F
Precip. -- инчи
Притисок 30.01 инчи
Видливост 10.0 миљи
Облаци Ведро
Точка на kондензација 49 °F
Влажност 48%
Дожд 0.00 инчи
Височина на снег Not available.
6:32 AM 4:45 PM
Првиот квартал, 19% visible
METAR KCQT 230447Z AUTO 00000KT 10SM CLR 21/08 A3002 RMK AO2 SLP162 T02110078
Притисок 30.01 инчи
Видливост 10.0 миљи
Облаци Ведро
Точка на kондензација 49 °F
Влажност 48%
Дожд 0.00 инчи
Височина на снег Not available.
6:32 AM 4:45 PM
Првиот квартал, 19% visible
METAR KCQT 230447Z AUTO 00000KT 10SM CLR 21/08 A3002 RMK AO2 SLP162 T02110078

Get Severe Weather Alerts

Thanks for signing up!

Be on the lookout for a verification email in your inbox.

You'll start receiving the daily forecast at 6 AM.

×

10-Day Weather Forecast

Almanac

Астрономијата

Nov. 22, 2017 Изгревање Заоѓање
Актуелно време
Граѓанскиот самрак
Наутички самрак
Астрономски самрак
Месечината
Должина на видливата светлина
Должина на денот
Tomorrow will be .
, % of the Moon is Illuminated

Екстреми денес

State Highs State Lows

Community

WunderPhotos

Category 6

Welcome to Category 6. This is the collective home for Weather Underground's featured writeups by Dr. Jeff Masters (right), Bob Henson (left), Chris Burt, and other regular contributors.

Nearby

Квалитетот на воздухот

  Квалитетот на воздухот AQ индекс Загадувач
Not available.

Височина на снег

Station Depth Висина

Earthquake Activity

Град Distance Mag. Time & Date
Minimum magnitude displayed is 2.5.

Coastal Water Temperatures

Место Температура

Stations

Nearby Weather Stations

Локација на станицата Темп. Лични чувство за темп. со ветерот Точка на kондензација Влажност Ветер Precip. Elev Ажурирани Тип
                   

Watches & Warnings

There are currently no watches in effect.